Thunder radar more information blitzortung!


Radar de pluja more information rain snow radar


Visita la nostra xarxa de llocs de meteo:

Template documentation
and downloads

And another site



No particular awareness of the weather is required.    There are no Weather-warnings

Pagina Historial Weather Underground text

Diari Resum Octubre 6, 2017 Unitats:  Tant    Imperial   Mètric
« Previous Dia
SegĂźent Dia »
Diari Setmana Mensual Anual Personalitzada
  Maxima: Minima: Media:
Temperatura: 82.6 °F /  28.1 °C 60.6 °F /  15.9 °C 71.1 °F /  21.7 °C
Punt de rosada: 63 °F /  17.2 °C 55.4 °F /  13.0 °C 59.7 °F /  15.4 °C
Humitat: 90 % 41 % 69 %
Wind Speed: 12.7 mph /  20.4 km/h - 3.5 mph /  5.6 km/h
RĂ fegues de vent: 12.7 mph /  20.4 km/h - -
Vent:- - SE
Pression baro: 30.1 in /  1019.9 hPa 30 in /  1016.8 hPa -
Precipitacions: 0 in /  0.0 mm    
Historical Graphs
 
 
Dades de taula per Octubre 6, 2017
Temps Temperatura Punt de rosada Pression baro Vent Wind Speed RĂ fegues de vent Humitat Rainfall Rate (Hourly)
00:00 65.1 °F /  18.4 °C 61.2 °F /  16.2 °C 30.1 in /  1017.8 hPa Calm   2 mph /  3.2 km/h 87 % 0 in /  0.0 mm
00:04 67.6 °F /  19.8 °C 63 °F /  17.2 °C 30.1 in /  1018.8 hPa West 3.1 mph /  5.0 km/h 3.1 mph /  5.0 km/h 85 % 0 in /  0.0 mm
00:09 67.6 °F /  19.8 °C 63 °F /  17.2 °C 30.1 in /  1018.8 hPa WSW 3.5 mph /  5.6 km/h 3.5 mph /  5.6 km/h 85 % 0 in /  0.0 mm
00:10 64.9 °F /  18.3 °C 61 °F /  16.1 °C 30.1 in /  1017.8 hPa NNE 1 mph /  1.6 km/h 2 mph /  3.2 km/h 87 % 0 in /  0.0 mm
00:14 67.6 °F /  19.8 °C 63 °F /  17.2 °C 30.1 in /  1017.8 hPa West 2.6 mph /  4.2 km/h 2.6 mph /  4.2 km/h 85 % 0 in /  0.0 mm
00:20 64.8 °F /  18.2 °C 60.8 °F /  16.0 °C 30.1 in /  1017.8 hPa Calm   2 mph /  3.2 km/h 87 % 0 in /  0.0 mm
00:30 64.4 °F /  18.0 °C 60.4 °F /  15.8 °C 30.1 in /  1017.8 hPa Calm   1 mph /  1.6 km/h 87 % 0 in /  0.0 mm
00:40 64.2 °F /  17.9 °C 60.6 °F /  15.9 °C 30.1 in /  1017.8 hPa Calm   1 mph /  1.6 km/h 88 % 0 in /  0.0 mm
00:50 64 °F /  17.8 °C 60.4 °F /  15.8 °C 30.1 in /  1017.8 hPa Calm   2 mph /  3.2 km/h 88 % 0 in /  0.0 mm
01:00 63.7 °F /  17.6 °C 59.7 °F /  15.4 °C 30.1 in /  1017.8 hPa NNE 1 mph /  1.6 km/h 2 mph /  3.2 km/h 87 % 0 in /  0.0 mm
01:10 63.5 °F /  17.5 °C 59.5 °F /  15.3 °C 30.1 in /  1017.8 hPa NNW 1 mph /  1.6 km/h 4 mph /  6.4 km/h 87 % 0 in /  0.0 mm
01:20 63.1 °F /  17.3 °C 59.5 °F /  15.3 °C 30.1 in /  1017.8 hPa WNW 1 mph /  1.6 km/h 2 mph /  3.2 km/h 88 % 0 in /  0.0 mm
01:30 63 °F /  17.2 °C 59.4 °F /  15.2 °C 30 in /  1016.8 hPa WSW 1 mph /  1.6 km/h 2 mph /  3.2 km/h 88 % 0 in /  0.0 mm
01:40 62.8 °F /  17.1 °C 59.2 °F /  15.1 °C 30 in /  1016.8 hPa SW 1 mph /  1.6 km/h 1 mph /  1.6 km/h 88 % 0 in /  0.0 mm
01:50 62.6 °F /  17.0 °C 59.4 °F /  15.2 °C 30.1 in /  1017.8 hPa SW 2 mph /  3.2 km/h 3 mph /  4.8 km/h 89 % 0 in /  0.0 mm
02:00 62.6 °F /  17.0 °C 59.5 °F /  15.3 °C 30.1 in /  1017.8 hPa Calm   2 mph /  3.2 km/h 90 % 0 in /  0.0 mm
02:10 62.2 °F /  16.8 °C 59.4 °F /  15.2 °C 30.1 in /  1017.8 hPa Calm   1 mph /  1.6 km/h 90 % 0 in /  0.0 mm
02:20 61.5 °F /  16.4 °C 58.3 °F /  14.6 °C 30.1 in /  1017.8 hPa Calm     89 % 0 in /  0.0 mm
02:30 61.3 °F /  16.3 °C 58.1 °F /  14.5 °C 30.1 in /  1017.8 hPa Calm   1 mph /  1.6 km/h 89 % 0 in /  0.0 mm
02:40 60.6 °F /  15.9 °C 57.4 °F /  14.1 °C 30.1 in /  1017.8 hPa Calm   3 mph /  4.8 km/h 89 % 0 in /  0.0 mm
02:50 60.8 °F /  16.0 °C 57.6 °F /  14.2 °C 30.1 in /  1017.8 hPa Calm   1 mph /  1.6 km/h 89 % 0 in /  0.0 mm
03:00 60.6 °F /  15.9 °C 57.4 °F /  14.1 °C 30.1 in /  1017.8 hPa Calm     89 % 0 in /  0.0 mm
03:10 60.6 °F /  15.9 °C 57 °F /  13.9 °C 30.1 in /  1017.8 hPa Calm     88 % 0 in /  0.0 mm
03:20 60.8 °F /  16.0 °C 57.2 °F /  14.0 °C 30.1 in /  1017.8 hPa WNW 1 mph /  1.6 km/h 1 mph /  1.6 km/h 88 % 0 in /  0.0 mm
03:30 61 °F /  16.1 °C 57 °F /  13.9 °C 30.1 in /  1017.8 hPa Calm   2 mph /  3.2 km/h 87 % 0 in /  0.0 mm
03:40 61.9 °F /  16.6 °C 57.9 °F /  14.4 °C 30.1 in /  1017.8 hPa North 2 mph /  3.2 km/h 3 mph /  4.8 km/h 87 % 0 in /  0.0 mm
03:50 63 °F /  17.2 °C 58.5 °F /  14.7 °C 30.1 in /  1017.8 hPa NE 2 mph /  3.2 km/h 2 mph /  3.2 km/h 85 % 0 in /  0.0 mm
04:00 63.3 °F /  17.4 °C 58.1 °F /  14.5 °C 30.1 in /  1017.8 hPa Calm   1 mph /  1.6 km/h 83 % 0 in /  0.0 mm
04:10 63.3 °F /  17.4 °C 58.1 °F /  14.5 °C 30.1 in /  1017.8 hPa Calm   2 mph /  3.2 km/h 83 % 0 in /  0.0 mm
04:20 64.4 °F /  18.0 °C 58.8 °F /  14.9 °C 30.1 in /  1017.8 hPa West 1 mph /  1.6 km/h 2 mph /  3.2 km/h 82 % 0 in /  0.0 mm
04:30 66 °F /  18.9 °C 59.4 °F /  15.2 °C 30.1 in /  1017.8 hPa Calm   1 mph /  1.6 km/h 79 % 0 in /  0.0 mm
04:40 66.4 °F /  19.1 °C 58.8 °F /  14.9 °C 30.1 in /  1017.8 hPa West 1 mph /  1.6 km/h 2 mph /  3.2 km/h 77 % 0 in /  0.0 mm
04:50 67.1 °F /  19.5 °C 59.4 °F /  15.2 °C 30.1 in /  1017.8 hPa Calm   2 mph /  3.2 km/h 76 % 0 in /  0.0 mm
05:00 68.7 °F /  20.4 °C 60.1 °F /  15.6 °C 30.1 in /  1017.8 hPa South 1 mph /  1.6 km/h 2 mph /  3.2 km/h 74 % 0 in /  0.0 mm
05:20 68.9 °F /  20.5 °C 59.5 °F /  15.3 °C 30.1 in /  1018.8 hPa NE 2 mph /  3.2 km/h 3 mph /  4.8 km/h 72 % 0 in /  0.0 mm
05:30 68.7 °F /  20.4 °C 57.7 °F /  14.3 °C 30.1 in /  1018.8 hPa ENE 2 mph /  3.2 km/h 5 mph /  8.0 km/h 68 % 0 in /  0.0 mm
05:40 69.8 °F /  21.0 °C 59.2 °F /  15.1 °C 30.1 in /  1018.8 hPa Calm   2 mph /  3.2 km/h 69 % 0 in /  0.0 mm
10:44 70 °F /  21.1 °C 59.4 °F /  15.2 °C 30.1 in /  1018.8 hPa West 3.5 mph /  5.6 km/h 3.5 mph /  5.6 km/h 69 % 0 in /  0.0 mm
10:45 70.2 °F /  21.2 °C 59.5 °F /  15.3 °C 30.1 in /  1018.8 hPa WSW 3.5 mph /  5.6 km/h 3.5 mph /  5.6 km/h 69 % 0 in /  0.0 mm
10:47 70.2 °F /  21.2 °C 59.5 °F /  15.3 °C 30.1 in /  1018.8 hPa WNW 2.3 mph /  3.7 km/h   69 % 0 in /  0.0 mm
10:52 70.5 °F /  21.4 °C 59.4 °F /  15.2 °C 30.1 in /  1018.8 hPa ENE 2.3 mph /  3.7 km/h 2.3 mph /  3.7 km/h 68 % 0 in /  0.0 mm
10:57 70.2 °F /  21.2 °C 58.3 °F /  14.6 °C 30.1 in /  1018.8 hPa NNE 4.6 mph /  7.4 km/h 4.6 mph /  7.4 km/h 66 % 0 in /  0.0 mm
11:02 70.5 °F /  21.4 °C 59 °F /  15.0 °C 30.1 in /  1018.8 hPa ENE 3.5 mph /  5.6 km/h 3.8 mph /  6.1 km/h 67 % 0 in /  0.0 mm
11:07 70.5 °F /  21.4 °C 58.3 °F /  14.6 °C 30.1 in /  1018.8 hPa East 3.5 mph /  5.6 km/h 3.5 mph /  5.6 km/h 65 % 0 in /  0.0 mm
11:12 70.5 °F /  21.4 °C 58.3 °F /  14.6 °C 30.1 in /  1018.8 hPa NE 3.5 mph /  5.6 km/h 4.3 mph /  6.9 km/h 65 % 0 in /  0.0 mm
11:17 70.9 °F /  21.6 °C 58.5 °F /  14.7 °C 30.1 in /  1018.8 hPa NNE 5.4 mph /  8.7 km/h 5.4 mph /  8.7 km/h 65 % 0 in /  0.0 mm
11:22 70.5 °F /  21.4 °C 57.7 °F /  14.3 °C 30.1 in /  1018.8 hPa NNE 4.6 mph /  7.4 km/h 4.6 mph /  7.4 km/h 64 % 0 in /  0.0 mm
11:27 71.1 °F /  21.7 °C 58.6 °F /  14.8 °C 30.1 in /  1018.8 hPa ESE 2.4 mph /  3.9 km/h 2.4 mph /  3.9 km/h 65 % 0 in /  0.0 mm
11:32 71.6 °F /  22.0 °C 57.4 °F /  14.1 °C 30.1 in /  1018.8 hPa SSE 1.4 mph /  2.3 km/h 2.6 mph /  4.2 km/h 61 % 0 in /  0.0 mm
11:37 72.5 °F /  22.5 °C 59.2 °F /  15.1 °C 30.1 in /  1018.8 hPa SW 2.3 mph /  3.7 km/h   63 % 0 in /  0.0 mm
11:42 73 °F /  22.8 °C 59.7 °F /  15.4 °C 30.1 in /  1018.8 hPa North 1.2 mph /  1.9 km/h 1.2 mph /  1.9 km/h 63 % 0 in /  0.0 mm
11:47 72.9 °F /  22.7 °C 59.2 °F /  15.1 °C 30.1 in /  1018.8 hPa ENE 4.6 mph /  7.4 km/h 4.6 mph /  7.4 km/h 62 % 0 in /  0.0 mm
11:52 72.3 °F /  22.4 °C 58.1 °F /  14.5 °C 30.1 in /  1018.8 hPa ENE 4.6 mph /  7.4 km/h 4.6 mph /  7.4 km/h 61 % 0 in /  0.0 mm
11:57 72.7 °F /  22.6 °C 58.8 °F /  14.9 °C 30.1 in /  1018.8 hPa ENE 4.6 mph /  7.4 km/h 4.6 mph /  7.4 km/h 62 % 0 in /  0.0 mm
12:02 72.5 °F /  22.5 °C 58.3 °F /  14.6 °C 30.1 in /  1018.8 hPa NE 2.3 mph /  3.7 km/h 3.1 mph /  5.0 km/h 61 % 0 in /  0.0 mm
12:07 73 °F /  22.8 °C 58.8 °F /  14.9 °C 30.1 in /  1018.8 hPa WSW 2.4 mph /  3.9 km/h 2.4 mph /  3.9 km/h 61 % 0 in /  0.0 mm
12:12 73.9 °F /  23.3 °C 59.5 °F /  15.3 °C 30.1 in /  1018.8 hPa NNW 2.3 mph /  3.7 km/h 2.3 mph /  3.7 km/h 61 % 0 in /  0.0 mm
12:17 74.8 °F /  23.8 °C 60.1 °F /  15.6 °C 30.1 in /  1018.8 hPa WNW 3.6 mph /  5.8 km/h 3.6 mph /  5.8 km/h 60 % 0 in /  0.0 mm
12:22 74.5 °F /  23.6 °C 59.7 °F /  15.4 °C 30.1 in /  1018.8 hPa ESE 4.9 mph /  7.9 km/h 4.9 mph /  7.9 km/h 60 % 0 in /  0.0 mm
12:27 74.5 °F /  23.6 °C 59.2 °F /  15.1 °C 30.1 in /  1018.8 hPa West 2.9 mph /  4.7 km/h 2.9 mph /  4.7 km/h 59 % 0 in /  0.0 mm
12:37 74.5 °F /  23.6 °C 59.2 °F /  15.1 °C 30.1 in /  1018.8 hPa SW 3.8 mph /  6.1 km/h 3.8 mph /  6.1 km/h 59 % 0 in /  0.0 mm
12:42 74.8 °F /  23.8 °C 59.2 °F /  15.1 °C 30.1 in /  1018.8 hPa WSW 4.6 mph /  7.4 km/h 4.6 mph /  7.4 km/h 58 % 0 in /  0.0 mm
12:47 75.4 °F /  24.1 °C 59.2 °F /  15.1 °C 30.1 in /  1017.8 hPa SSE 2.3 mph /  3.7 km/h 2.4 mph /  3.9 km/h 57 % 0 in /  0.0 mm
12:52 76.1 °F /  24.5 °C 58.8 °F /  14.9 °C 30.1 in /  1017.8 hPa SE 3.6 mph /  5.8 km/h 3.6 mph /  5.8 km/h 55 % 0 in /  0.0 mm
12:57 76.3 °F /  24.6 °C 59.4 °F /  15.2 °C 30.1 in /  1017.8 hPa SW 3.5 mph /  5.6 km/h 3.5 mph /  5.6 km/h 56 % 0 in /  0.0 mm
13:02 76.3 °F /  24.6 °C 58.8 °F /  14.9 °C 30.1 in /  1017.8 hPa Calm     55 % 0 in /  0.0 mm
13:07 77 °F /  25.0 °C 58.6 °F /  14.8 °C 30.1 in /  1017.8 hPa South 2.3 mph /  3.7 km/h 2.3 mph /  3.7 km/h 53 % 0 in /  0.0 mm
13:12 77.7 °F /  25.4 °C 59.2 °F /  15.1 °C 30.1 in /  1017.8 hPa SSE 3.5 mph /  5.6 km/h 3.5 mph /  5.6 km/h 53 % 0 in /  0.0 mm
13:17 77.9 °F /  25.5 °C 59.9 °F /  15.5 °C 30.1 in /  1017.8 hPa NW 4.6 mph /  7.4 km/h 4.6 mph /  7.4 km/h 54 % 0 in /  0.0 mm
13:22 77 °F /  25.0 °C 57.9 °F /  14.4 °C 30.1 in /  1017.8 hPa NNE 3.5 mph /  5.6 km/h 3.5 mph /  5.6 km/h 52 % 0 in /  0.0 mm
13:27 77 °F /  25.0 °C 57.9 °F /  14.4 °C 30.1 in /  1017.8 hPa NE 4.6 mph /  7.4 km/h 4.6 mph /  7.4 km/h 52 % 0 in /  0.0 mm
13:32 76.6 °F /  24.8 °C 58.3 °F /  14.6 °C 30.1 in /  1017.8 hPa ENE 3.6 mph /  5.8 km/h 3.6 mph /  5.8 km/h 53 % 0 in /  0.0 mm
13:37 76.6 °F /  24.8 °C 57.7 °F /  14.3 °C 30.1 in /  1017.8 hPa SE 4.6 mph /  7.4 km/h   52 % 0 in /  0.0 mm
13:42 78.1 °F /  25.6 °C 59 °F /  15.0 °C 30.1 in /  1017.8 hPa South 2.3 mph /  3.7 km/h 2.3 mph /  3.7 km/h 52 % 0 in /  0.0 mm
13:47 77.2 °F /  25.1 °C 55.9 °F /  13.3 °C 30.1 in /  1017.8 hPa SSE 4.6 mph /  7.4 km/h 4.6 mph /  7.4 km/h 48 % 0 in /  0.0 mm
13:52 77.2 °F /  25.1 °C 56.5 °F /  13.6 °C 30.1 in /  1017.8 hPa ESE 2.3 mph /  3.7 km/h 2.3 mph /  3.7 km/h 49 % 0 in /  0.0 mm
13:57 77.2 °F /  25.1 °C 56.5 °F /  13.6 °C 30.1 in /  1017.8 hPa NNE 3.5 mph /  5.6 km/h 3.5 mph /  5.6 km/h 49 % 0 in /  0.0 mm
14:02 77.5 °F /  25.3 °C 57.4 °F /  14.1 °C 30.1 in /  1017.8 hPa NW 4.6 mph /  7.4 km/h 4.6 mph /  7.4 km/h 50 % 0 in /  0.0 mm
14:07 78.1 °F /  25.6 °C 57.9 °F /  14.4 °C 30.1 in /  1017.8 hPa SW 4.6 mph /  7.4 km/h 4.6 mph /  7.4 km/h 50 % 0 in /  0.0 mm
14:12 79.2 °F /  26.2 °C 58.8 °F /  14.9 °C 30.1 in /  1017.8 hPa WSW 5.4 mph /  8.7 km/h 5.4 mph /  8.7 km/h 50 % 0 in /  0.0 mm
14:17 79.5 °F /  26.4 °C 58.6 °F /  14.8 °C 30 in /  1016.8 hPa South 4.6 mph /  7.4 km/h 4.6 mph /  7.4 km/h 49 % 0 in /  0.0 mm
14:27 79.9 °F /  26.6 °C 57.7 °F /  14.3 °C 30 in /  1016.8 hPa NW 4.6 mph /  7.4 km/h 4.6 mph /  7.4 km/h 47 % 0 in /  0.0 mm
14:32 80.1 °F /  26.7 °C 57.4 °F /  14.1 °C 30.1 in /  1017.8 hPa East 3.5 mph /  5.6 km/h 3.5 mph /  5.6 km/h 46 % 0 in /  0.0 mm
14:37 79.5 °F /  26.4 °C 57.6 °F /  14.2 °C 30.1 in /  1017.8 hPa South 2.3 mph /  3.7 km/h 2.3 mph /  3.7 km/h 47 % 0 in /  0.0 mm
14:42 81 °F /  27.2 °C 57.6 °F /  14.2 °C 30.1 in /  1017.8 hPa SSE 2.9 mph /  4.7 km/h 2.9 mph /  4.7 km/h 45 % 0 in /  0.0 mm
14:47 80.8 °F /  27.1 °C 57.6 °F /  14.2 °C 30.1 in /  1017.8 hPa SW 3.6 mph /  5.8 km/h 3.6 mph /  5.8 km/h 45 % 0 in /  0.0 mm
14:52 80.8 °F /  27.1 °C 57.6 °F /  14.2 °C 30.1 in /  1017.8 hPa SW 5.8 mph /  9.3 km/h 5.8 mph /  9.3 km/h 45 % 0 in /  0.0 mm
14:53 80.6 °F /  27.0 °C 56.7 °F /  13.7 °C 30.1 in /  1017.8 hPa East 4.6 mph /  7.4 km/h 4.6 mph /  7.4 km/h 44 % 0 in /  0.0 mm
14:58 81.1 °F /  27.3 °C 56.5 °F /  13.6 °C 30.1 in /  1017.8 hPa NE 3.5 mph /  5.6 km/h 3.5 mph /  5.6 km/h 43 % 0 in /  0.0 mm
15:03 82.2 °F /  27.9 °C 58.1 °F /  14.5 °C 30.1 in /  1017.8 hPa NNW 4.6 mph /  7.4 km/h 4.6 mph /  7.4 km/h 44 % 0 in /  0.0 mm
15:08 82.4 °F /  28.0 °C 58.3 °F /  14.6 °C 30.1 in /  1017.8 hPa SW 2.9 mph /  4.7 km/h 2.9 mph /  4.7 km/h 44 % 0 in /  0.0 mm
15:13 81.7 °F /  27.6 °C 57.6 °F /  14.2 °C 30.1 in /  1017.8 hPa WSW 5.8 mph /  9.3 km/h 5.8 mph /  9.3 km/h 44 % 0 in /  0.0 mm
15:18 82 °F /  27.8 °C 57.4 °F /  14.1 °C 30.1 in /  1017.8 hPa West 5.8 mph /  9.3 km/h 5.8 mph /  9.3 km/h 43 % 0 in /  0.0 mm
15:23 82.6 °F /  28.1 °C 57.2 °F /  14.0 °C 30.1 in /  1017.8 hPa NE 2.9 mph /  4.7 km/h 2.9 mph /  4.7 km/h 42 % 0 in /  0.0 mm
15:28 82.4 °F /  28.0 °C 56.3 °F /  13.5 °C 30.1 in /  1017.8 hPa ESE 2.9 mph /  4.7 km/h 2.9 mph /  4.7 km/h 41 % 0 in /  0.0 mm
15:33 81.3 °F /  27.4 °C 55.4 °F /  13.0 °C 30.1 in /  1017.8 hPa ENE 5.8 mph /  9.3 km/h 5.8 mph /  9.3 km/h 41 % 0 in /  0.0 mm
15:38 79.7 °F /  26.5 °C 57 °F /  13.9 °C 30.1 in /  1017.8 hPa ESE 9 mph /  14.5 km/h 9 mph /  14.5 km/h 46 % 0 in /  0.0 mm
15:43 78.4 °F /  25.8 °C 58.3 °F /  14.6 °C 30.1 in /  1017.8 hPa East 8.1 mph /  13.0 km/h 8.1 mph /  13.0 km/h 50 % 0 in /  0.0 mm
15:48 77.5 °F /  25.3 °C 57.9 °F /  14.4 °C 30.1 in /  1017.8 hPa East 8.1 mph /  13.0 km/h 8.1 mph /  13.0 km/h 51 % 0 in /  0.0 mm
15:53 77.5 °F /  25.3 °C 58.5 °F /  14.7 °C 30.1 in /  1017.8 hPa ESE 9.2 mph /  14.8 km/h 9.2 mph /  14.8 km/h 52 % 0 in /  0.0 mm
15:58 77.2 °F /  25.1 °C 58.6 °F /  14.8 °C 30.1 in /  1017.8 hPa SE 10.4 mph /  16.7 km/h 10.4 mph /  16.7 km/h 53 % 0 in /  0.0 mm
16:03 76.6 °F /  24.8 °C 59.7 °F /  15.4 °C 30.1 in /  1017.8 hPa East 8.7 mph /  14.0 km/h 8.7 mph /  14.0 km/h 56 % 0 in /  0.0 mm
16:08 76.6 °F /  24.8 °C 60.3 °F /  15.7 °C 30.1 in /  1017.8 hPa ESE 11.5 mph /  18.5 km/h 11.5 mph /  18.5 km/h 57 % 0 in /  0.0 mm
16:13 76.1 °F /  24.5 °C 60.3 °F /  15.7 °C 30.1 in /  1017.8 hPa SSE 10.4 mph /  16.7 km/h 10.4 mph /  16.7 km/h 58 % 0 in /  0.0 mm
16:18 75.7 °F /  24.3 °C 60.4 °F /  15.8 °C 30.1 in /  1017.8 hPa East 12.7 mph /  20.4 km/h 12.7 mph /  20.4 km/h 59 % 0 in /  0.0 mm
16:23 75.4 °F /  24.1 °C 60.4 °F /  15.8 °C 30.1 in /  1017.8 hPa SE 9.2 mph /  14.8 km/h 9.2 mph /  14.8 km/h 60 % 0 in /  0.0 mm
16:28 75.4 °F /  24.1 °C 60.4 °F /  15.8 °C 30 in /  1016.8 hPa SE 10.4 mph /  16.7 km/h 10.4 mph /  16.7 km/h 60 % 0 in /  0.0 mm
16:33 75.2 °F /  24.0 °C 60.4 °F /  15.8 °C 30 in /  1016.8 hPa ESE 9.7 mph /  15.6 km/h 9.7 mph /  15.6 km/h 60 % 0 in /  0.0 mm
16:38 75.6 °F /  24.2 °C 60.6 °F /  15.9 °C 30 in /  1016.8 hPa SSE 4.6 mph /  7.4 km/h 4.6 mph /  7.4 km/h 60 % 0 in /  0.0 mm
16:43 74.8 °F /  23.8 °C 61 °F /  16.1 °C 30.1 in /  1017.8 hPa East 8.1 mph /  13.0 km/h 8.1 mph /  13.0 km/h 62 % 0 in /  0.0 mm
16:48 74.8 °F /  23.8 °C 61.3 °F /  16.3 °C 30.1 in /  1017.8 hPa ESE 8.1 mph /  13.0 km/h 8.1 mph /  13.0 km/h 63 % 0 in /  0.0 mm
16:53 74.7 °F /  23.7 °C 61.7 °F /  16.5 °C 30.1 in /  1017.8 hPa ESE 9.2 mph /  14.8 km/h 9.2 mph /  14.8 km/h 64 % 0 in /  0.0 mm
16:58 74.5 °F /  23.6 °C 61.9 °F /  16.6 °C 30.1 in /  1017.8 hPa ENE 6.9 mph /  11.1 km/h 6.9 mph /  11.1 km/h 65 % 0 in /  0.0 mm
17:03 74.5 °F /  23.6 °C 61.9 °F /  16.6 °C 30.1 in /  1017.8 hPa ESE 5.8 mph /  9.3 km/h 5.8 mph /  9.3 km/h 65 % 0 in /  0.0 mm
17:08 74.8 °F /  23.8 °C 62.2 °F /  16.8 °C 30.1 in /  1017.8 hPa ENE 5.4 mph /  8.7 km/h 5.4 mph /  8.7 km/h 65 % 0 in /  0.0 mm
17:13 74.8 °F /  23.8 °C 61.9 °F /  16.6 °C 30.1 in /  1017.8 hPa ENE 4.6 mph /  7.4 km/h 4.6 mph /  7.4 km/h 64 % 0 in /  0.0 mm
17:18 75 °F /  23.9 °C 62.1 °F /  16.7 °C 30.1 in /  1017.8 hPa ESE 5.8 mph /  9.3 km/h 5.8 mph /  9.3 km/h 64 % 0 in /  0.0 mm
17:23 74.8 °F /  23.8 °C 62.2 °F /  16.8 °C 30.1 in /  1017.8 hPa East 9.2 mph /  14.8 km/h 9.2 mph /  14.8 km/h 65 % 0 in /  0.0 mm
17:28 74.7 °F /  23.7 °C 62.1 °F /  16.7 °C 30 in /  1016.8 hPa ENE 6.9 mph /  11.1 km/h 6.9 mph /  11.1 km/h 65 % 0 in /  0.0 mm
17:33 74.8 °F /  23.8 °C 62.2 °F /  16.8 °C 30 in /  1016.8 hPa ESE 4.6 mph /  7.4 km/h 4.6 mph /  7.4 km/h 65 % 0 in /  0.0 mm
17:38 74.7 °F /  23.7 °C 62.4 °F /  16.9 °C 30 in /  1016.8 hPa East 9.2 mph /  14.8 km/h 9.2 mph /  14.8 km/h 66 % 0 in /  0.0 mm
17:43 74.5 °F /  23.6 °C 62.4 °F /  16.9 °C 30 in /  1016.8 hPa ENE 4.6 mph /  7.4 km/h 4.6 mph /  7.4 km/h 66 % 0 in /  0.0 mm
17:48 74.3 °F /  23.5 °C 62.2 °F /  16.8 °C 30 in /  1016.8 hPa East 5.8 mph /  9.3 km/h 5.8 mph /  9.3 km/h 66 % 0 in /  0.0 mm
17:53 74.1 °F /  23.4 °C 62.4 °F /  16.9 °C 30 in /  1016.8 hPa NE 5.8 mph /  9.3 km/h 5.8 mph /  9.3 km/h 67 % 0 in /  0.0 mm
17:58 73.9 °F /  23.3 °C 62.2 °F /  16.8 °C 30 in /  1016.8 hPa ESE 5.8 mph /  9.3 km/h 5.8 mph /  9.3 km/h 67 % 0 in /  0.0 mm
18:03 73.9 °F /  23.3 °C 62.8 °F /  17.1 °C 30 in /  1016.8 hPa ENE 4.6 mph /  7.4 km/h 4.6 mph /  7.4 km/h 68 % 0 in /  0.0 mm
18:08 73.6 °F /  23.1 °C 62.8 °F /  17.1 °C 30 in /  1016.8 hPa ENE 6.9 mph /  11.1 km/h 6.9 mph /  11.1 km/h 69 % 0 in /  0.0 mm
18:13 73.2 °F /  22.9 °C 62.4 °F /  16.9 °C 30.1 in /  1017.8 hPa ESE 8.1 mph /  13.0 km/h 8.1 mph /  13.0 km/h 69 % 0 in /  0.0 mm
18:18 72.9 °F /  22.7 °C 62.1 °F /  16.7 °C 30.1 in /  1017.8 hPa ENE 5.8 mph /  9.3 km/h 5.8 mph /  9.3 km/h 69 % 0 in /  0.0 mm
18:24 72.9 °F /  22.7 °C 62.4 °F /  16.9 °C 30.1 in /  1017.8 hPa ESE 5.8 mph /  9.3 km/h 5.8 mph /  9.3 km/h 70 % 0 in /  0.0 mm
18:34 72.5 °F /  22.5 °C 62.2 °F /  16.8 °C 30 in /  1016.8 hPa NNE 4.6 mph /  7.4 km/h 4.6 mph /  7.4 km/h 70 % 0 in /  0.0 mm
18:39 72.5 °F /  22.5 °C 62.2 °F /  16.8 °C 30 in /  1016.8 hPa East 8.1 mph /  13.0 km/h 8.1 mph /  13.0 km/h 70 % 0 in /  0.0 mm
18:44 72.3 °F /  22.4 °C 62.4 °F /  16.9 °C 30.1 in /  1017.8 hPa ENE 4 mph /  6.4 km/h 4 mph /  6.4 km/h 71 % 0 in /  0.0 mm
18:49 72 °F /  22.2 °C 62.1 °F /  16.7 °C 30.1 in /  1017.8 hPa ENE 4.6 mph /  7.4 km/h 4.6 mph /  7.4 km/h 71 % 0 in /  0.0 mm
18:54 72 °F /  22.2 °C 62.1 °F /  16.7 °C 30.1 in /  1017.8 hPa East 6 mph /  9.7 km/h 6 mph /  9.7 km/h 71 % 0 in /  0.0 mm
18:59 71.8 °F /  22.1 °C 61.9 °F /  16.6 °C 30.1 in /  1017.8 hPa East 4.6 mph /  7.4 km/h 4.6 mph /  7.4 km/h 71 % 0 in /  0.0 mm
19:04 71.6 °F /  22.0 °C 61.7 °F /  16.5 °C 30.1 in /  1017.8 hPa ESE 5.8 mph /  9.3 km/h 5.8 mph /  9.3 km/h 71 % 0 in /  0.0 mm
19:09 71.4 °F /  21.9 °C 61.9 °F /  16.6 °C 30.1 in /  1017.8 hPa East 3.5 mph /  5.6 km/h 3.5 mph /  5.6 km/h 72 % 0 in /  0.0 mm
19:14 71.2 °F /  21.8 °C 61.7 °F /  16.5 °C 30.1 in /  1017.8 hPa ESE 4.6 mph /  7.4 km/h 4.6 mph /  7.4 km/h 72 % 0 in /  0.0 mm
19:19 71.1 °F /  21.7 °C 61.5 °F /  16.4 °C 30.1 in /  1017.8 hPa ESE 4.6 mph /  7.4 km/h 4.6 mph /  7.4 km/h 72 % 0 in /  0.0 mm
19:24 70.9 °F /  21.6 °C 61.3 °F /  16.3 °C 30.1 in /  1017.8 hPa ENE 4.6 mph /  7.4 km/h 4.6 mph /  7.4 km/h 72 % 0 in /  0.0 mm
19:29 70.7 °F /  21.5 °C 61.2 °F /  16.2 °C 30.1 in /  1017.8 hPa ESE 4.9 mph /  7.9 km/h 4.9 mph /  7.9 km/h 72 % 0 in /  0.0 mm
19:34 70.5 °F /  21.4 °C 61.2 °F /  16.2 °C 30.1 in /  1017.8 hPa ESE 4.6 mph /  7.4 km/h 4.6 mph /  7.4 km/h 72 % 0 in /  0.0 mm
19:39 70.3 °F /  21.3 °C 61 °F /  16.1 °C 30.1 in /  1017.8 hPa ESE 4.6 mph /  7.4 km/h 4.6 mph /  7.4 km/h 72 % 0 in /  0.0 mm
19:44 70.2 °F /  21.2 °C 60.6 °F /  15.9 °C 30.1 in /  1017.8 hPa SE 4.6 mph /  7.4 km/h 4.6 mph /  7.4 km/h 72 % 0 in /  0.0 mm
19:49 70 °F /  21.1 °C 60.4 °F /  15.8 °C 30.1 in /  1017.8 hPa NE 4.7 mph /  7.6 km/h 4.7 mph /  7.6 km/h 72 % 0 in /  0.0 mm
19:54 69.8 °F /  21.0 °C 60.8 °F /  16.0 °C 30.1 in /  1017.8 hPa ENE 3.5 mph /  5.6 km/h 3.5 mph /  5.6 km/h 73 % 0 in /  0.0 mm
19:59 69.8 °F /  21.0 °C 60.8 °F /  16.0 °C 30.1 in /  1017.8 hPa NNE 3.5 mph /  5.6 km/h 3.5 mph /  5.6 km/h 73 % 0 in /  0.0 mm
20:04 69.6 °F /  20.9 °C 60.6 °F /  15.9 °C 30.1 in /  1017.8 hPa East 4.3 mph /  6.9 km/h 4.3 mph /  6.9 km/h 73 % 0 in /  0.0 mm
20:09 69.4 °F /  20.8 °C 60.4 °F /  15.8 °C 30.1 in /  1017.8 hPa ENE 3.5 mph /  5.6 km/h 3.5 mph /  5.6 km/h 73 % 0 in /  0.0 mm
20:14 69.3 °F /  20.7 °C 60.6 °F /  15.9 °C 30.1 in /  1017.8 hPa ENE 4.6 mph /  7.4 km/h 4.6 mph /  7.4 km/h 74 % 0 in /  0.0 mm
20:19 69.3 °F /  20.7 °C 60.6 °F /  15.9 °C 30.1 in /  1017.8 hPa ESE 3.6 mph /  5.8 km/h 3.6 mph /  5.8 km/h 74 % 0 in /  0.0 mm
20:24 69.1 °F /  20.6 °C 60.4 °F /  15.8 °C 30.1 in /  1017.8 hPa ENE 2 mph /  3.2 km/h 2.2 mph /  3.5 km/h 74 % 0 in /  0.0 mm
20:29 69.1 °F /  20.6 °C 60.8 °F /  16.0 °C 30.1 in /  1017.8 hPa ENE 4.3 mph /  6.9 km/h 4.3 mph /  6.9 km/h 75 % 0 in /  0.0 mm
20:34 68.9 °F /  20.5 °C 60.6 °F /  15.9 °C 30.1 in /  1017.8 hPa ENE 2.3 mph /  3.7 km/h 2.3 mph /  3.7 km/h 75 % 0 in /  0.0 mm
20:39 68.7 °F /  20.4 °C 60.4 °F /  15.8 °C 30.1 in /  1017.8 hPa North 3.5 mph /  5.6 km/h 3.5 mph /  5.6 km/h 75 % 0 in /  0.0 mm
20:44 68.7 °F /  20.4 °C 60.8 °F /  16.0 °C 30.1 in /  1017.8 hPa NE 4.6 mph /  7.4 km/h 4.6 mph /  7.4 km/h 76 % 0 in /  0.0 mm
20:49 68.7 °F /  20.4 °C 60.8 °F /  16.0 °C 30.1 in /  1017.8 hPa ENE 4.6 mph /  7.4 km/h 4.6 mph /  7.4 km/h 76 % 0 in /  0.0 mm
20:54 68.5 °F /  20.3 °C 60.6 °F /  15.9 °C 30.1 in /  1017.8 hPa East 3.5 mph /  5.6 km/h 3.5 mph /  5.6 km/h 76 % 0 in /  0.0 mm
20:58 68.4 °F /  20.2 °C 61 °F /  16.1 °C 30.1 in /  1017.8 hPa ENE 5.8 mph /  9.3 km/h 5.8 mph /  9.3 km/h 77 % 0 in /  0.0 mm
21:03 68.4 °F /  20.2 °C 61 °F /  16.1 °C 30.1 in /  1017.8 hPa ESE 2.3 mph /  3.7 km/h 2.3 mph /  3.7 km/h 77 % 0 in /  0.0 mm
21:08 68.2 °F /  20.1 °C 61.2 °F /  16.2 °C 30.1 in /  1017.8 hPa SE 3.5 mph /  5.6 km/h 3.5 mph /  5.6 km/h 78 % 0 in /  0.0 mm
21:13 68.2 °F /  20.1 °C 61.2 °F /  16.2 °C 30.1 in /  1017.8 hPa ESE 2.6 mph /  4.2 km/h 2.6 mph /  4.2 km/h 78 % 0 in /  0.0 mm
21:18 68 °F /  20.0 °C 61.2 °F /  16.2 °C 30.1 in /  1017.8 hPa ESE 4.6 mph /  7.4 km/h 4.6 mph /  7.4 km/h 79 % 0 in /  0.0 mm
21:23 68 °F /  20.0 °C 61.2 °F /  16.2 °C 30.1 in /  1017.8 hPa East 4.6 mph /  7.4 km/h 4.6 mph /  7.4 km/h 79 % 0 in /  0.0 mm
21:28 67.8 °F /  19.9 °C 61.2 °F /  16.2 °C 30.1 in /  1017.8 hPa ESE 2.6 mph /  4.2 km/h 2.6 mph /  4.2 km/h 79 % 0 in /  0.0 mm
21:33 67.8 °F /  19.9 °C 61.2 °F /  16.2 °C 30.1 in /  1017.8 hPa East 1.2 mph /  1.9 km/h   79 % 0 in /  0.0 mm
21:38 67.6 °F /  19.8 °C 60.4 °F /  15.8 °C 30.1 in /  1017.8 hPa ENE 2.3 mph /  3.7 km/h 2.3 mph /  3.7 km/h 78 % 0 in /  0.0 mm
21:43 67.5 °F /  19.7 °C 60.6 °F /  15.9 °C 30.1 in /  1017.8 hPa NE 2.9 mph /  4.7 km/h 2.9 mph /  4.7 km/h 79 % 0 in /  0.0 mm
21:48 67.3 °F /  19.6 °C 60.4 °F /  15.8 °C 30.1 in /  1018.8 hPa ESE 2.3 mph /  3.7 km/h 2.3 mph /  3.7 km/h 79 % 0 in /  0.0 mm
21:53 67.3 °F /  19.6 °C 60.4 °F /  15.8 °C 30.1 in /  1018.8 hPa East 3.5 mph /  5.6 km/h 3.5 mph /  5.6 km/h 79 % 0 in /  0.0 mm
21:58 67.3 °F /  19.6 °C 60.4 °F /  15.8 °C 30.1 in /  1018.8 hPa Calm     79 % 0 in /  0.0 mm
22:03 67.1 °F /  19.5 °C 60.4 °F /  15.8 °C 30.1 in /  1018.8 hPa SSW 1.2 mph /  1.9 km/h 1.2 mph /  1.9 km/h 79 % 0 in /  0.0 mm
22:08 66.6 °F /  19.2 °C 59.5 °F /  15.3 °C 30.1 in /  1018.8 hPa SW 2.3 mph /  3.7 km/h 2.3 mph /  3.7 km/h 78 % 0 in /  0.0 mm
22:13 66.4 °F /  19.1 °C 59.4 °F /  15.2 °C 30.1 in /  1018.8 hPa SW 2.3 mph /  3.7 km/h 2.3 mph /  3.7 km/h 78 % 0 in /  0.0 mm
22:18 66.2 °F /  19.0 °C 59.2 °F /  15.1 °C 30.1 in /  1018.8 hPa SW 2.3 mph /  3.7 km/h 2.3 mph /  3.7 km/h 78 % 0 in /  0.0 mm
22:23 66 °F /  18.9 °C 59.7 °F /  15.4 °C 30.1 in /  1018.8 hPa Calm     80 % 0 in /  0.0 mm
22:33 65.8 °F /  18.8 °C 59.5 °F /  15.3 °C 30.1 in /  1018.8 hPa SW 1.6 mph /  2.6 km/h   80 % 0 in /  0.0 mm
22:38 65.8 °F /  18.8 °C 59.5 °F /  15.3 °C 30.1 in /  1018.8 hPa SW 2.3 mph /  3.7 km/h 2.3 mph /  3.7 km/h 80 % 0 in /  0.0 mm
22:43 65.8 °F /  18.8 °C 59.5 °F /  15.3 °C 30.1 in /  1018.8 hPa Calm     80 % 0 in /  0.0 mm
22:48 65.8 °F /  18.8 °C 59.5 °F /  15.3 °C 30.1 in /  1018.8 hPa SW 2.3 mph /  3.7 km/h 2.3 mph /  3.7 km/h 80 % 0 in /  0.0 mm
22:53 65.8 °F /  18.8 °C 59.7 °F /  15.4 °C 30.1 in /  1018.8 hPa Calm     81 % 0 in /  0.0 mm
22:58 65.7 °F /  18.7 °C 59.7 °F /  15.4 °C 30.1 in /  1018.8 hPa Calm     81 % 0 in /  0.0 mm
23:03 65.7 °F /  18.7 °C 59.7 °F /  15.4 °C 30.1 in /  1018.8 hPa Calm     81 % 0 in /  0.0 mm
23:08 65.5 °F /  18.6 °C 59.5 °F /  15.3 °C 30.1 in /  1018.8 hPa Calm     81 % 0 in /  0.0 mm
23:13 65.5 °F /  18.6 °C 59.5 °F /  15.3 °C 30.1 in /  1018.8 hPa Calm     81 % 0 in /  0.0 mm
23:18 65.3 °F /  18.5 °C 59.4 °F /  15.2 °C 30.1 in /  1018.8 hPa Calm     81 % 0 in /  0.0 mm
23:23 65.3 °F /  18.5 °C 59.4 °F /  15.2 °C 30.1 in /  1018.8 hPa Calm     81 % 0 in /  0.0 mm
23:28 65.1 °F /  18.4 °C 59.2 °F /  15.1 °C 30.1 in /  1018.8 hPa Calm     81 % 0 in /  0.0 mm
23:33 65.3 °F /  18.5 °C 59.4 °F /  15.2 °C 30.1 in /  1018.8 hPa Calm     81 % 0 in /  0.0 mm
23:38 65.3 °F /  18.5 °C 59.4 °F /  15.2 °C 30.1 in /  1018.8 hPa Calm     81 % 0 in /  0.0 mm
23:43 65.3 °F /  18.5 °C 59.4 °F /  15.2 °C 30.1 in /  1019.9 hPa Calm     81 % 0 in /  0.0 mm
23:53 65.1 °F /  18.4 °C 59.2 °F /  15.1 °C 30.1 in /  1019.9 hPa Calm     81 % 0 in /  0.0 mm
23:58 65.1 °F /  18.4 °C 59.5 °F /  15.3 °C 30.1 in /  1019.9 hPa Calm     82 % 0 in /  0.0 mm
Meteo Sesrovires
Elogis d' Weather Underground - 3.5 mb

Guio original per  Jim McMurry - jmcmurry@mwt.net Adaptat per a la plantilla per  Wim van der Kuil - Leuven-Template.eu

Trobareu la nostra informacio del temps tambe a:

Weather Underground

AWEKAS